Time;durP1;ratioP1;P1;durP2;ratioP2;P2;SDS_P1;SDS_P2;PMS_P1;PMS_P2;Temp;Humidity;BMP_temperature;BMP_pressure;BME280_temperature;BME280_humidity;BME280_pressure;Samples;Min_cycle;Max_cycle;Signal;HPM_P1;HPM_P2
2022/04/27 00:00:53;;;;;;;7.70;4.30;;;8.30;99.90;;;;;;5054236;28;20510;-77
2022/04/27 00:03:18;;;;;;;7.70;4.82;;;8.30;99.90;;;;;;5103539;28;20047;-76
2022/04/27 00:05:44;;;;;;;9.38;3.53;;;8.40;99.90;;;;;;5070138;28;20032;-76
2022/04/27 00:08:10;;;;;;;14.25;4.20;;;8.40;99.90;;;;;;5087933;28;20050;-77
2022/04/27 00:10:35;;;;;;;7.55;3.67;;;8.40;99.90;;;;;;5104580;28;20445;-77
2022/04/27 00:13:01;;;;;;;19.38;3.40;;;8.40;99.90;;;;;;5054059;28;20437;-77
2022/04/27 00:15:28;;;;;;;12.48;3.15;;;8.40;99.90;;;;;;5087875;28;20119;-77
2022/04/27 00:17:54;;;;;;;11.10;3.10;;;8.40;99.90;;;;;;5087274;28;20052;-76
2022/04/27 00:20:20;;;;;;;14.63;3.65;;;8.40;99.90;;;;;;5087445;28;20428;-76
2022/04/27 00:22:46;;;;;;;14.50;3.65;;;8.50;99.90;;;;;;5103686;28;20100;-77
2022/04/27 00:25:12;;;;;;;6.47;3.00;;;8.50;99.90;;;;;;5087289;28;20105;-78
2022/04/27 00:27:37;;;;;;;7.82;3.20;;;9.10;99.90;;;;;;5069652;28;20077;-77
2022/04/27 00:30:04;;;;;;;7.38;3.63;;;8.40;99.90;;;;;;5088186;28;20101;-76
2022/04/27 00:32:29;;;;;;;10.38;3.22;;;8.50;99.90;;;;;;5102894;28;20548;-75
2022/04/27 00:34:55;;;;;;;7.88;3.78;;;8.50;99.90;;;;;;5088457;28;20040;-75
2022/04/27 00:37:21;;;;;;;11.18;3.50;;;8.40;99.90;;;;;;5086916;28;20040;-76
2022/04/27 00:39:47;;;;;;;10.80;3.28;;;8.40;99.90;;;;;;5086318;28;20040;-77
2022/04/27 00:42:17;;;;;;;11.38;3.20;;;8.50;99.90;;;;;;5087161;28;20073;-77
2022/04/27 00:44:44;;;;;;;9.25;3.92;;;8.50;99.90;;;;;;5087551;28;20168;-77
2022/04/27 00:47:15;;;;;;;9.00;3.72;;;8.50;99.90;;;;;;5087829;28;20076;-77
2022/04/27 00:49:43;;;;;;;7.65;3.47;;;8.50;99.90;;;;;;5085858;28;20040;-77
2022/04/27 00:52:13;;;;;;;6.57;3.08;;;9.40;99.90;;;;;;5087697;28;20036;-77
2022/04/27 00:54:41;;;;;;;7.43;2.97;;;8.50;99.90;;;;;;5086829;28;20051;-76
2022/04/27 00:57:07;;;;;;;7.60;3.38;;;8.50;99.90;;;;;;5102774;28;20181;-77
2022/04/27 00:59:34;;;;;;;7.85;3.45;;;8.50;99.90;;;;;;5086113;28;20048;-77
2022/04/27 01:02:00;;;;;;;9.18;3.17;;;8.50;99.90;;;;;;5087667;28;20053;-76
2022/04/27 01:04:26;;;;;;;12.68;3.55;;;8.50;99.90;;;;;;5087490;28;20472;-77
2022/04/27 01:06:52;;;;;;;8.88;3.25;;;8.50;99.90;;;;;;5086718;28;20047;-76
2022/04/27 01:09:18;;;;;;;6.93;3.20;;;8.90;99.90;;;;;;5103110;28;20048;-76
2022/04/27 01:11:45;;;;;;;13.25;3.40;;;8.50;99.90;;;;;;5086530;28;20079;-77
2022/04/27 01:14:11;;;;;;;6.68;3.53;;;8.50;99.90;;;;;;5086997;28;20040;-77
2022/04/27 01:16:37;;;;;;;6.90;2.72;;;8.50;99.90;;;;;;5085130;28;20069;-76
2022/04/27 01:19:05;;;;;;;9.63;3.28;;;8.50;99.90;;;;;;5087192;28;20040;-77
2022/04/27 01:21:31;;;;;;;10.82;3.22;;;8.50;99.90;;;;;;5086953;28;20522;-77
2022/04/27 01:23:57;;;;;;;7.43;2.90;;;8.50;99.90;;;;;;5086387;28;20090;-76
2022/04/27 01:26:22;;;;;;;4.30;2.45;;;9.00;99.90;;;;;;5087334;28;20475;-76
2022/04/27 01:28:48;;;;;;;6.85;2.80;;;8.50;99.90;;;;;;5084953;28;20062;-77
2022/04/27 01:31:14;;;;;;;7.85;2.80;;;8.50;99.90;;;;;;5102703;28;20308;-77
2022/04/27 01:33:40;;;;;;;12.48;3.13;;;8.50;99.90;;;;;;5086241;28;20040;-77
2022/04/27 01:36:07;;;;;;;4.95;2.65;;;8.50;99.90;;;;;;5086371;28;20089;-77
2022/04/27 01:38:41;;;;;;;12.38;2.30;;;8.50;99.90;;;;;;5086410;28;20052;-76
2022/04/27 01:41:08;;;;;;;8.05;3.00;;;8.60;99.90;;;;;;5085897;28;20052;-76
2022/04/27 01:43:35;;;;;;;7.97;3.35;;;8.50;99.90;;;;;;5086907;28;20043;-76
2022/04/27 01:46:02;;;;;;;5.32;2.90;;;8.50;99.90;;;;;;5084153;28;20056;-76
2022/04/27 01:48:28;;;;;;;8.73;3.00;;;8.50;99.90;;;;;;5085063;28;20044;-76
2022/04/27 01:50:54;;;;;;;4.97;2.30;;;8.50;99.90;;;;;;5084887;28;20117;-77
2022/04/27 01:56:08;;;;;;;3.90;2.60;;;8.50;99.90;;;;;;5085206;28;20059;-76
2022/04/27 01:58:34;;;;;;;7.50;2.38;;;8.60;99.90;;;;;;5084203;28;20032;-76
2022/04/27 02:01:00;;;;;;;5.40;2.10;;;8.60;99.90;;;;;;5101805;28;20036;-76
2022/04/27 02:03:26;;;;;;;5.55;2.17;;;8.60;99.90;;;;;;5101321;28;20548;-76
2022/04/27 02:05:52;;;;;;;7.50;2.15;;;8.50;99.90;;;;;;5068398;28;20332;-77
2022/04/27 02:08:18;;;;;;;4.85;2.47;;;8.60;99.90;;;;;;5085889;28;20072;-77
2022/04/27 02:10:45;;;;;;;4.50;1.88;;;8.60;99.90;;;;;;5084355;28;20530;-77
2022/04/27 02:13:11;;;;;;;6.68;1.90;;;9.60;99.90;;;;;;5085476;28;20040;-77
2022/04/27 02:15:37;;;;;;;4.85;1.73;;;8.60;99.90;;;;;;5101389;28;20375;-77
2022/04/27 02:18:03;;;;;;;6.93;2.13;;;8.60;99.90;;;;;;5085129;28;20208;-76
2022/04/27 02:20:30;;;;;;;6.45;2.30;;;8.60;99.90;;;;;;5067107;28;20036;-77
2022/04/27 02:22:56;;;;;;;5.07;2.25;;;8.60;99.90;;;;;;5051293;28;20040;-76
2022/04/27 02:25:22;;;;;;;7.07;2.22;;;8.60;99.90;;;;;;5051035;28;20054;-78
2022/04/27 02:27:52;;;;;;;4.07;2.03;;;8.50;99.90;;;;;;5101954;28;20051;-78
2022/04/27 02:30:21;;;;;;;5.28;2.00;;;8.80;99.90;;;;;;5102236;28;20052;-75
2022/04/27 02:32:47;;;;;;;4.45;2.38;;;8.50;99.90;;;;;;5100970;28;20161;-77
2022/04/27 02:35:14;;;;;;;7.40;2.10;;;8.50;99.90;;;;;;5101445;28;20044;-76
2022/04/27 02:37:40;;;;;;;6.97;2.53;;;8.50;99.90;;;;;;5067734;28;20506;-76
2022/04/27 02:40:08;;;;;;;5.60;2.40;;;8.60;99.90;;;;;;5102250;28;20422;-77
2022/04/27 02:42:34;;;;;;;3.95;1.75;;;8.50;99.90;;;;;;5101486;28;20073;-77
2022/04/27 02:45:00;;;;;;;5.28;2.22;;;8.50;99.90;;;;;;5067096;28;20063;-77
2022/04/27 02:47:26;;;;;;;4.80;2.50;;;8.50;99.90;;;;;;5051542;28;20044;-75
2022/04/27 02:52:36;;;;;;;3.25;1.65;;;8.50;99.90;;;;;;5084386;28;20483;-77
2022/04/27 02:55:02;;;;;;;4.65;1.88;;;8.50;99.90;;;;;;5067406;28;20051;-76
2022/04/27 02:57:28;;;;;;;3.88;1.92;;;8.50;99.90;;;;;;5084617;28;20059;-76
2022/04/27 02:59:54;;;;;;;4.55;1.80;;;8.50;99.90;;;;;;5086022;28;20032;-76
2022/04/27 03:02:19;;;;;;;3.78;1.83;;;8.50;99.90;;;;;;5100589;28;20052;-76
2022/04/27 03:04:45;;;;;;;3.70;1.85;;;8.50;99.90;;;;;;5084780;28;20553;-76
2022/04/27 03:07:11;;;;;;;4.03;1.88;;;9.60;99.90;;;;;;5067130;28;20044;-76
2022/04/27 03:09:37;;;;;;;5.78;1.92;;;8.50;99.90;;;;;;5084547;28;20043;-76
2022/04/27 03:12:03;;;;;;;4.82;2.25;;;8.60;99.90;;;;;;5101102;28;20044;-77
2022/04/27 03:14:29;;;;;;;5.53;2.78;;;8.50;99.90;;;;;;5067315;28;20104;-76
2022/04/27 03:16:56;;;;;;;5.78;2.15;;;8.50;99.90;;;;;;5067673;28;20048;-77
2022/04/27 03:19:21;;;;;;;7.07;2.50;;;8.50;99.90;;;;;;5085215;28;20132;-78
2022/04/27 03:21:47;;;;;;;9.63;2.42;;;8.90;99.90;;;;;;5071045;28;20076;-78
2022/04/27 03:24:13;;;;;;;5.95;2.55;;;8.50;99.90;;;;;;5053434;28;20077;-76
2022/04/27 03:26:39;;;;;;;3.95;2.10;;;8.40;99.90;;;;;;5071170;28;20097;-77
2022/04/27 03:29:05;;;;;;;2.97;1.73;;;8.40;99.90;;;;;;5104184;28;20430;-77
2022/04/27 03:31:32;;;;;;;5.45;2.15;;;8.50;99.90;;;;;;5054039;28;20043;-77
2022/04/27 03:33:58;;;;;;;6.05;2.05;;;8.40;99.90;;;;;;5104960;28;20116;-77
2022/04/27 03:36:24;;;;;;;3.22;1.67;;;8.40;99.90;;;;;;5086980;28;20135;-78
2022/04/27 03:38:49;;;;;;;3.63;2.00;;;8.40;99.90;;;;;;5054551;28;20040;-77
2022/04/27 03:41:19;;;;;;;9.10;2.28;;;9.40;99.90;;;;;;5069902;28;20052;-77
2022/04/27 03:43:45;;;;;;;3.50;1.40;;;8.50;99.90;;;;;;5054582;28;20405;-77
2022/04/27 03:46:11;;;;;;;6.82;1.48;;;8.40;99.90;;;;;;5103738;28;20131;-77
2022/04/27 03:48:36;;;;;;;4.07;1.60;;;8.40;99.90;;;;;;5087658;28;20040;-75
2022/04/27 03:51:04;;;;;;;4.22;1.63;;;8.40;99.90;;;;;;5071139;28;20077;-78
2022/04/27 03:53:30;;;;;;;8.05;2.10;;;8.40;99.90;;;;;;5069943;28;20564;-77
2022/04/27 03:55:55;;;;;;;4.63;1.60;;;8.60;99.90;;;;;;5104818;28;20047;-78
2022/04/27 03:58:21;;;;;;;2.20;1.85;;;8.40;99.90;;;;;;5053082;28;20048;-77
2022/04/27 04:00:47;;;;;;;4.32;2.00;;;8.40;99.90;;;;;;5104702;28;20564;-76
2022/04/27 04:03:13;;;;;;;3.50;1.42;;;8.40;99.90;;;;;;5070008;28;20064;-77
2022/04/27 04:05:39;;;;;;;4.90;1.92;;;8.60;99.90;;;;;;5103825;28;20424;-77
2022/04/27 04:08:05;;;;;;;7.60;2.15;;;8.50;99.90;;;;;;5070357;28;20124;-76
2022/04/27 04:10:31;;;;;;;5.60;1.95;;;8.40;99.90;;;;;;5070090;28;20097;-77
2022/04/27 04:12:57;;;;;;;2.17;1.60;;;8.40;99.90;;;;;;5070061;28;20484;-77
2022/04/27 04:15:23;;;;;;;3.28;1.85;;;8.40;99.90;;;;;;5069223;28;20130;-77
2022/04/27 04:17:49;;;;;;;2.97;1.85;;;8.40;99.90;;;;;;5103938;28;20084;-77
2022/04/27 04:20:18;;;;;;;4.07;1.77;;;8.40;99.90;;;;;;5052525;28;20456;-76
2022/04/27 04:22:46;;;;;;;5.88;2.08;;;8.40;99.90;;;;;;5087202;28;20582;-76
2022/04/27 04:30:42;;;;;;;2.28;1.45;;;8.30;99.90;;;;;;5085855;28;20055;-76
2022/04/27 04:33:07;;;;;;;4.38;1.80;;;9.00;99.90;;;;;;5068988;28;20050;-77
2022/04/27 04:35:34;;;;;;;4.75;1.58;;;8.40;99.90;;;;;;5103626;28;20039;-77
2022/04/27 04:38:00;;;;;;;3.75;1.40;;;8.40;99.90;;;;;;5086671;28;20978;-78
2022/04/27 04:40:26;;;;;;;4.97;1.20;;;8.40;99.90;;;;;;5086185;28;20036;-77
2022/04/27 04:42:52;;;;;;;3.53;1.67;;;8.40;99.90;;;;;;5087805;28;20044;-77
2022/04/27 04:45:19;;;;;;;2.05;1.50;;;8.40;99.90;;;;;;5102217;28;20063;-77
2022/04/27 04:47:45;;;;;;;7.10;1.10;;;8.40;99.90;;;;;;5052662;28;20048;-77
2022/04/27 04:50:12;;;;;;;2.58;1.13;;;8.40;99.90;;;;;;5052663;28;20540;-78
2022/04/27 04:52:38;;;;;;;4.45;1.13;;;8.40;99.90;;;;;;5069728;28;20098;-77
2022/04/27 04:55:04;;;;;;;8.65;1.70;;;8.50;99.90;;;;;;5069368;28;20439;-77
2022/04/27 04:57:30;;;;;;;2.38;1.50;;;8.50;99.90;;;;;;5085438;28;20036;-77
2022/04/27 04:59:55;;;;;;;4.43;1.80;;;8.50;99.90;;;;;;5086524;28;20505;-77
2022/04/27 05:02:21;;;;;;;3.70;1.77;;;8.50;99.90;;;;;;5068278;28;20105;-77
2022/04/27 05:04:47;;;;;;;2.60;1.35;;;8.50;99.90;;;;;;5085794;28;20047;-77
2022/04/27 05:07:12;;;;;;;3.28;1.48;;;8.60;99.90;;;;;;5085568;28;20039;-77
2022/04/27 05:09:38;;;;;;;4.78;2.05;;;9.80;99.90;;;;;;5087555;28;20480;-77
2022/04/27 05:12:04;;;;;;;7.07;2.05;;;8.60;99.90;;;;;;5085619;28;20067;-76
2022/04/27 05:14:30;;;;;;;2.53;1.60;;;8.60;99.90;;;;;;5086804;28;20128;-77
2022/04/27 05:16:56;;;;;;;4.45;2.13;;;9.20;99.90;;;;;;5086151;28;20048;-76
2022/04/27 05:19:23;;;;;;;3.50;1.77;;;8.70;99.90;;;;;;5086225;28;20036;-76
2022/04/27 05:21:49;;;;;;;2.92;1.30;;;8.70;99.90;;;;;;5087231;28;20036;-77
2022/04/27 05:24:15;;;;;;;5.32;1.40;;;8.70;99.90;;;;;;5086336;28;20090;-77
2022/04/27 05:26:41;;;;;;;1.85;1.63;;;8.70;99.90;;;;;;5087469;28;20071;-78
2022/04/27 05:31:54;;;;;;;4.50;1.65;;;8.80;99.90;;;;;;5086347;28;20051;-77
2022/04/27 05:34:21;;;;;;;4.55;1.45;;;8.80;99.90;;;;;;5086719;28;20054;-78
2022/04/27 05:36:47;;;;;;;7.25;1.98;;;8.80;99.90;;;;;;5085722;28;20098;-78
2022/04/27 05:39:13;;;;;;;4.68;1.30;;;8.90;99.90;;;;;;5086937;28;20044;-76
2022/04/27 05:41:39;;;;;;;2.65;1.48;;;8.90;99.90;;;;;;5086278;28;20044;-77
2022/04/27 05:44:12;;;;;;;3.75;1.60;;;8.90;99.90;;;;;;5084184;28;20408;-77
2022/04/27 05:46:38;;;;;;;2.53;1.40;;;9.00;99.90;;;;;;5087012;28;20040;-78
2022/04/27 05:49:05;;;;;;;6.13;1.63;;;9.00;99.90;;;;;;5084472;28;20043;-76
2022/04/27 05:51:30;;;;;;;5.60;1.58;;;9.20;99.90;;;;;;5086701;28;20398;-76
2022/04/27 05:53:57;;;;;;;3.92;1.70;;;9.10;99.90;;;;;;5086336;28;20111;-76
2022/04/27 05:56:23;;;;;;;4.40;1.60;;;9.10;99.90;;;;;;5086818;28;20122;-77
2022/04/27 05:58:49;;;;;;;1.90;1.50;;;9.10;99.90;;;;;;5085916;28;20376;-77
2022/04/27 06:01:15;;;;;;;2.78;1.48;;;9.20;99.90;;;;;;5086159;28;20040;-76
2022/04/27 06:03:41;;;;;;;2.35;1.15;;;9.80;99.90;;;;;;5084864;28;20480;-76
2022/04/27 06:06:07;;;;;;;4.53;1.40;;;9.70;99.90;;;;;;5085822;28;20039;-76
2022/04/27 06:08:33;;;;;;;3.30;1.60;;;9.30;99.90;;;;;;5052087;28;20036;-77
2022/04/27 06:10:59;;;;;;;6.03;1.65;;;9.30;99.90;;;;;;5050977;28;20048;-77
2022/04/27 06:13:26;;;;;;;2.03;1.17;;;9.30;99.90;;;;;;5084814;28;20352;-78
2022/04/27 06:15:52;;;;;;;5.20;1.25;;;9.40;99.90;;;;;;5086123;28;20055;-76
2022/04/27 06:18:18;;;;;;;2.97;0.85;;;9.40;99.90;;;;;;5084761;28;20488;-76
2022/04/27 06:20:44;;;;;;;1.42;0.68;;;9.40;99.90;;;;;;5102038;28;20105;-76
2022/04/27 06:23:09;;;;;;;3.17;0.70;;;9.50;99.90;;;;;;5084514;28;20502;-78
2022/04/27 06:25:39;;;;;;;3.88;0.88;;;9.50;99.90;;;;;;5101776;28;20046;-76
2022/04/27 06:28:05;;;;;;;4.03;1.10;;;9.50;99.90;;;;;;5100732;28;20056;-75
2022/04/27 06:30:32;;;;;;;5.95;0.85;;;9.60;99.90;;;;;;5102115;28;20044;-75
2022/04/27 06:32:58;;;;;;;5.43;1.15;;;9.60;99.90;;;;;;5101105;28;20056;-76
2022/04/27 06:35:24;;;;;;;6.45;1.00;;;9.70;99.90;;;;;;5067580;28;20040;-75
2022/04/27 06:37:49;;;;;;;2.35;0.80;;;9.70;99.90;;;;;;5085103;28;20040;-76
2022/04/27 06:40:15;;;;;;;2.13;1.00;;;9.70;99.90;;;;;;5100798;28;20040;-76
2022/04/27 06:42:44;;;;;;;3.47;1.00;;;9.80;99.90;;;;;;5101461;28;20131;-76
2022/04/27 06:45:10;;;;;;;1.25;0.73;;;9.80;99.90;;;;;;5100465;28;20052;-76
2022/04/27 06:47:36;;;;;;;1.55;0.75;;;9.80;99.90;;;;;;5101855;28;20514;-76
2022/04/27 06:50:02;;;;;;;2.75;0.90;;;9.90;99.90;;;;;;5067298;28;20051;-76
2022/04/27 06:52:28;;;;;;;5.10;1.25;;;9.90;99.90;;;;;;5102064;28;20067;-76
2022/04/27 06:54:53;;;;;;;3.03;1.08;;;10.00;99.90;;;;;;5070454;28;20063;-76
2022/04/27 06:57:19;;;;;;;7.35;1.33;;;10.00;99.90;;;;;;5054410;28;20036;-76
2022/04/27 06:59:45;;;;;;;2.58;0.80;;;10.10;99.90;;;;;;5105101;28;20050;-77
2022/04/27 07:02:14;;;;;;;4.25;0.60;;;10.90;99.90;;;;;;5089328;28;20125;-76
2022/04/27 07:04:41;;;;;;;2.50;0.77;;;10.30;99.90;;;;;;5090051;28;20119;-76
2022/04/27 07:07:07;;;;;;;2.83;0.70;;;10.30;99.90;;;;;;5089486;28;20048;-77
2022/04/27 07:09:33;;;;;;;7.57;0.75;;;10.30;99.90;;;;;;5105591;28;20051;-76
2022/04/27 07:11:59;;;;;;;2.60;0.70;;;10.40;99.80;;;;;;5105197;28;20407;-78
2022/04/27 07:14:25;;;;;;;5.97;1.08;;;10.40;99.80;;;;;;5104448;28;20051;-76
2022/04/27 07:16:51;;;;;;;4.20;0.57;;;10.40;99.20;;;;;;5089351;28;20047;-77
2022/04/27 07:19:17;;;;;;;3.80;0.82;;;10.80;99.10;;;;;;5054486;28;20334;-77
2022/04/27 07:21:43;;;;;;;2.25;0.73;;;10.40;98.90;;;;;;5088054;28;20503;-76
2022/04/27 07:24:09;;;;;;;6.28;0.80;;;10.50;98.70;;;;;;5088766;28;20044;-77
2022/04/27 07:26:35;;;;;;;3.10;0.50;;;10.50;98.40;;;;;;5105717;28;20107;-76
2022/04/27 07:29:01;;;;;;;4.88;0.95;;;10.50;98.50;;;;;;5089840;28;20040;-76
2022/04/27 07:31:26;;;;;;;3.38;0.70;;;10.50;97.70;;;;;;5088846;28;20052;-76
2022/04/27 07:33:53;;;;;;;2.47;0.68;;;10.50;97.50;;;;;;5090536;28;20036;-77
2022/04/27 07:36:19;;;;;;;4.70;0.88;;;10.50;97.30;;;;;;5090590;28;20135;-78
2022/04/27 07:38:45;;;;;;;3.25;0.80;;;10.50;97.40;;;;;;5090462;28;20044;-77
2022/04/27 07:41:11;;;;;;;1.85;0.52;;;10.50;97.30;;;;;;5089659;28;20080;-76
2022/04/27 07:43:37;;;;;;;1.52;0.75;;;10.60;97.40;;;;;;5105656;28;20672;-77
2022/04/27 07:46:08;;;;;;;3.95;1.00;;;10.60;97.30;;;;;;5089597;28;20478;-76
2022/04/27 07:48:34;;;;;;;1.73;0.70;;;10.60;97.10;;;;;;5088501;28;20048;-76
2022/04/27 07:51:00;;;;;;;3.50;0.95;;;10.60;96.60;;;;;;5088887;28;20052;-76
2022/04/27 07:53:26;;;;;;;3.90;0.70;;;10.60;96.30;;;;;;5088230;28;20048;-78
2022/04/27 07:55:52;;;;;;;5.05;1.15;;;10.70;96.30;;;;;;5091123;28;20074;-76
2022/04/27 07:58:18;;;;;;;7.00;1.15;;;10.60;96.90;;;;;;5091174;28;20044;-76
2022/04/27 08:00:44;;;;;;;3.83;1.00;;;10.60;97.40;;;;;;5090050;28;20058;-75
2022/04/27 08:03:10;;;;;;;8.77;1.63;;;10.60;97.90;;;;;;5106314;28;20155;-76
2022/04/27 08:05:35;;;;;;;5.95;1.50;;;10.50;98.50;;;;;;5088296;28;20523;-75
2022/04/27 08:08:01;;;;;;;4.15;1.10;;;10.60;98.80;;;;;;5071274;28;20098;-72
2022/04/27 08:10:27;;;;;;;6.03;1.30;;;10.70;99.30;;;;;;5071376;28;20068;-77
2022/04/27 08:12:53;;;;;;;9.52;1.50;;;10.80;99.60;;;;;;5072411;28;20076;-76
2022/04/27 08:15:20;;;;;;;6.00;1.30;;;10.80;99.90;;;;;;5104405;28;20448;-76
2022/04/27 08:18:01;;;;;;;6.53;1.55;;;10.70;99.90;;;;;;5087713;28;20381;-76
2022/04/27 08:23:14;;;;;;;5.88;1.50;;;10.80;99.90;;;;;;5086412;28;20059;-77
2022/04/27 08:25:41;;;;;;;8.45;1.42;;;10.90;99.90;;;;;;5070160;28;20040;-76
2022/04/27 08:28:08;;;;;;;8.02;1.25;;;10.90;99.90;;;;;;5069976;28;20047;-77
2022/04/27 08:30:38;;;;;;;12.25;2.13;;;11.70;99.90;;;;;;5088937;28;20096;-78
2022/04/27 08:33:06;;;;;;;9.68;1.35;;;11.00;99.90;;;;;;5054269;28;20516;-77
2022/04/27 08:35:32;;;;;;;7.78;1.52;;;11.00;99.90;;;;;;5087433;28;20542;-78
2022/04/27 08:38:02;;;;;;;5.55;1.77;;;11.10;99.90;;;;;;5086909;28;20061;-77
2022/04/27 08:40:28;;;;;;;8.25;2.08;;;11.80;99.90;;;;;;5103056;28;20407;-77
2022/04/27 08:42:55;;;;;;;7.03;1.92;;;11.40;99.90;;;;;;5103910;28;20325;-76
2022/04/27 08:45:22;;;;;;;3.47;1.00;;;11.30;99.90;;;;;;5085567;28;20071;-76
2022/04/27 08:47:49;;;;;;;10.70;1.92;;;11.30;99.90;;;;;;5103248;28;20055;-77
2022/04/27 08:50:20;;;;;;;12.45;2.17;;;11.40;99.90;;;;;;5103875;28;20044;-77
2022/04/27 08:52:47;;;;;;;9.18;1.38;;;11.30;99.90;;;;;;5087263;28;20267;-76
2022/04/27 08:55:14;;;;;;;6.75;1.48;;;11.30;99.90;;;;;;5085888;28;20098;-77
2022/04/27 08:57:40;;;;;;;7.43;1.40;;;11.30;99.90;;;;;;5085354;28;20044;-78
2022/04/27 09:00:08;;;;;;;8.05;1.73;;;11.30;99.90;;;;;;5103561;28;20051;-78
2022/04/27 09:02:35;;;;;;;5.88;1.08;;;11.30;99.90;;;;;;5086205;28;20104;-78
2022/04/27 09:05:10;;;;;;;7.95;1.48;;;11.30;99.90;;;;;;5069240;28;20423;-77
2022/04/27 09:07:44;;;;;;;7.00;1.30;;;11.40;99.90;;;;;;5103295;28;20048;-77
2022/04/27 09:10:15;;;;;;;4.93;0.85;;;11.40;99.90;;;;;;5086320;28;20444;-77
2022/04/27 09:12:48;;;;;;;7.70;1.35;;;11.40;99.90;;;;;;5087407;28;20054;-79
2022/04/27 09:15:17;;;;;;;6.50;1.42;;;11.40;99.90;;;;;;5068655;28;20044;-77
2022/04/27 09:20:47;;;;;;;6.28;1.17;;;11.40;99.90;;;;;;5087164;28;20124;-77
2022/04/27 09:23:40;;;;;;;6.07;2.00;;;11.40;99.90;;;;;;5086188;28;20044;-77
2022/04/27 09:26:22;;;;;;;4.55;1.13;;;11.40;99.90;;;;;;5081221;28;20131;-77
2022/04/27 09:28:49;;;;;;;7.35;1.50;;;11.30;99.90;;;;;;5068534;28;20131;-77
2022/04/27 09:31:35;;;;;;;7.20;1.20;;;11.30;99.90;;;;;;5086139;28;20052;-77
2022/04/27 09:36:56;;;;;;;5.60;1.38;;;11.10;99.90;;;;;;5085384;28;20479;-78
2022/04/27 09:39:25;;;;;;;6.57;1.73;;;11.20;99.90;;;;;;5102215;28;20085;-78
2022/04/27 09:41:52;;;;;;;8.32;1.75;;;11.10;99.90;;;;;;5102525;28;20403;-77
2022/04/27 09:44:34;;;;;;;4.70;1.45;;;11.10;99.90;;;;;;5101387;28;20607;-77
2022/04/27 09:47:03;;;;;;;7.25;1.17;;;11.10;99.90;;;;;;5102623;28;20052;-78
2022/04/27 09:49:31;;;;;;;7.68;1.38;;;11.00;99.90;;;;;;5068198;28;20044;-77
2022/04/27 09:51:57;;;;;;;10.02;1.40;;;11.00;99.90;;;;;;5101998;28;20074;-78
2022/04/27 09:54:31;;;;;;;8.45;1.13;;;11.10;99.90;;;;;;5102005;28;20052;-77
2022/04/27 09:57:09;;;;;;;6.88;1.45;;;11.10;99.90;;;;;;5084667;28;20051;-78
2022/04/27 09:59:36;;;;;;;12.65;1.48;;;11.20;99.90;;;;;;5102105;28;20135;-77
2022/04/27 10:02:07;;;;;;;3.70;1.10;;;11.20;99.90;;;;;;5051251;28;20036;-75
2022/04/27 10:04:33;;;;;;;5.22;1.25;;;11.10;99.90;;;;;;5101915;28;20052;-76
2022/04/27 10:07:02;;;;;;;8.38;1.42;;;11.10;99.90;;;;;;5101803;28;20075;-77
2022/04/27 10:09:31;;;;;;;12.50;1.85;;;11.20;99.90;;;;;;5101954;28;20487;-76
2022/04/27 10:12:00;;;;;;;20.05;3.67;;;11.30;99.90;;;;;;5067870;28;20123;-76
2022/04/27 10:14:26;;;;;;;14.45;3.20;;;11.20;99.90;;;;;;5101244;28;20116;-77
2022/04/27 10:16:56;;;;;;;8.30;2.53;;;11.20;99.90;;;;;;5068453;28;20052;-77
2022/04/27 10:19:23;;;;;;;9.05;1.50;;;11.20;99.90;;;;;;5101209;28;20048;-77
2022/04/27 10:22:00;;;;;;;15.10;4.07;;;11.20;99.90;;;;;;5068244;28;20056;-77
2022/04/27 10:24:34;;;;;;;7.72;1.42;;;11.20;99.90;;;;;;5067704;28;20055;-75
2022/04/27 10:27:22;;;;;;;10.32;1.63;;;11.20;99.90;;;;;;5101231;28;20451;-76
2022/04/27 10:30:07;;;;;;;9.90;1.98;;;11.20;99.90;;;;;;5070817;28;20048;-76
2022/04/27 10:32:51;;;;;;;9.50;1.30;;;11.20;99.90;;;;;;5105708;28;20061;-76
2022/04/27 10:35:27;;;;;;;11.55;1.42;;;11.30;99.90;;;;;;5105035;28;20558;-78
2022/04/27 10:37:57;;;;;;;8.95;1.65;;;11.30;99.90;;;;;;5106440;28;20108;-77
2022/04/27 10:40:29;;;;;;;13.13;1.70;;;11.40;99.90;;;;;;5054732;28;20395;-77
2022/04/27 10:42:56;;;;;;;13.57;1.75;;;11.40;99.90;;;;;;5105698;28;20052;-75
2022/04/27 10:45:24;;;;;;;5.05;1.10;;;11.50;99.90;;;;;;5071032;28;20064;-77
2022/04/27 10:47:50;;;;;;;5.85;1.50;;;12.30;99.90;;;;;;5071605;28;20406;-77
2022/04/27 10:50:19;;;;;;;9.43;1.40;;;11.50;99.90;;;;;;5088427;28;20129;-78
2022/04/27 10:52:53;;;;;;;7.80;1.88;;;11.50;99.70;;;;;;5104988;28;20048;-77
2022/04/27 10:55:40;;;;;;;8.93;1.35;;;11.50;99.70;;;;;;5055492;28;20047;-78
2022/04/27 10:58:31;;;;;;;13.50;1.52;;;11.50;99.10;;;;;;5104935;28;20132;-77
2022/04/27 11:01:01;;;;;;;8.75;1.75;;;11.60;99.40;;;;;;5070633;28;20104;-77
2022/04/27 11:03:38;;;;;;;7.70;1.50;;;11.60;99.30;;;;;;5104678;28;20056;-78
2022/04/27 11:06:11;;;;;;;8.68;1.42;;;11.70;99.10;;;;;;5070407;28;20091;-77
2022/04/27 11:08:36;;;;;;;4.15;0.80;;;11.70;98.90;;;;;;5105798;28;20055;-76
2022/04/27 11:11:07;;;;;;;7.57;1.65;;;11.80;99.10;;;;;;5104637;28;20048;-75
2022/04/27 11:13:34;;;;;;;4.57;1.20;;;11.90;98.80;;;;;;5105084;28;20076;-76
2022/04/27 11:16:07;;;;;;;7.55;1.27;;;11.90;98.50;;;;;;5104832;28;20050;-76
2022/04/27 11:18:55;;;;;;;8.38;1.58;;;11.90;98.40;;;;;;5087268;28;20101;-77
2022/04/27 11:21:22;;;;;;;7.53;1.30;;;12.00;97.40;;;;;;5088266;28;20083;-77
2022/04/27 11:23:48;;;;;;;8.20;1.85;;;12.10;98.30;;;;;;5090271;28;20423;-77
2022/04/27 11:26:15;;;;;;;8.30;1.80;;;12.10;97.50;;;;;;5091732;28;20048;-77
2022/04/27 11:28:45;;;;;;;9.32;1.40;;;12.10;97.00;;;;;;5091602;28;20094;-78
2022/04/27 11:31:12;;;;;;;8.65;1.70;;;12.20;96.70;;;;;;5070419;28;20054;-78
2022/04/27 11:33:41;;;;;;;8.45;1.80;;;12.30;96.70;;;;;;5089515;28;20075;-78
2022/04/27 11:36:20;;;;;;;13.90;2.17;;;12.20;96.30;;;;;;5087352;28;20131;-78
2022/04/27 11:38:46;;;;;;;12.73;2.35;;;12.20;96.20;;;;;;5072451;28;20043;-77
2022/04/27 11:41:19;;;;;;;13.25;3.35;;;12.20;96.10;;;;;;5087969;28;20043;-78
2022/04/27 11:43:45;;;;;;;8.98;2.22;;;12.20;96.00;;;;;;5088338;28;20036;-78
2022/04/27 11:46:11;;;;;;;9.05;1.52;;;12.20;95.70;;;;;;5089004;28;20052;-78
2022/04/27 11:48:37;;;;;;;9.82;1.27;;;12.30;95.60;;;;;;5088056;28;20404;-78
2022/04/27 11:51:06;;;;;;;8.68;1.27;;;12.40;95.20;;;;;;5070937;28;20400;-78
2022/04/27 11:53:47;;;;;;;7.07;1.20;;;13.00;95.00;;;;;;5087251;28;20071;-78
2022/04/27 11:56:18;;;;;;;8.65;1.27;;;12.50;93.70;;;;;;5103641;28;20086;-78
2022/04/27 11:58:45;;;;;;;8.48;1.35;;;12.60;94.00;;;;;;5086974;28;20530;-78
2022/04/27 12:01:21;;;;;;;6.85;1.05;;;12.60;94.40;;;;;;5103332;28;20044;-78
2022/04/27 12:03:49;;;;;;;8.48;1.02;;;12.70;94.80;;;;;;5070408;28;20048;-78
2022/04/27 12:06:22;;;;;;;4.25;1.08;;;12.80;94.10;;;;;;5103281;28;20127;-78
2022/04/27 12:08:48;;;;;;;5.63;1.45;;;12.80;93.00;;;;;;5103787;28;20058;-78
2022/04/27 12:11:23;;;;;;;10.25;1.83;;;12.90;93.30;;;;;;5104195;28;20127;-78
2022/04/27 12:13:51;;;;;;;9.07;1.30;;;13.20;92.70;;;;;;5103014;28;20062;-79
2022/04/27 12:16:17;;;;;;;6.55;1.23;;;13.20;92.50;;;;;;5070537;28;20055;-78
2022/04/27 12:18:54;;;;;;;6.38;1.13;;;13.30;92.30;;;;;;5087964;28;20040;-78
2022/04/27 12:21:24;;;;;;;6.30;1.08;;;13.50;91.20;;;;;;5087230;28;20101;-77
2022/04/27 12:23:51;;;;;;;6.15;0.98;;;13.70;91.50;;;;;;5070032;28;20064;-77
2022/04/27 12:26:17;;;;;;;8.13;1.52;;;13.80;90.50;;;;;;5086100;28;20044;-77
2022/04/27 12:28:49;;;;;;;8.80;1.58;;;13.90;89.70;;;;;;5088186;28;20047;-77
2022/04/27 12:31:16;;;;;;;8.77;1.08;;;14.10;87.70;;;;;;5086212;28;20048;-76
2022/04/27 12:33:47;;;;;;;5.30;1.00;;;14.10;87.50;;;;;;5086717;28;20147;-76
2022/04/27 12:39:03;;;;;;;9.20;1.35;;;14.20;85.90;;;;;;5087602;28;20113;-77
2022/04/27 12:41:41;;;;;;;5.85;1.30;;;14.20;85.30;;;;;;5103529;28;20388;-77
2022/04/27 12:44:13;;;;;;;5.50;1.00;;;14.20;84.30;;;;;;5102364;28;20062;-77
2022/04/27 12:47:07;;;;;;;4.63;1.35;;;14.20;82.90;;;;;;5087912;28;20162;-77
2022/04/27 12:49:41;;;;;;;8.55;1.08;;;14.10;77.60;;;;;;5084731;28;20063;-77
2022/04/27 12:52:26;;;;;;;2.95;0.93;;;14.10;82.00;;;;;;5086915;28;20071;-77
2022/04/27 12:55:07;;;;;;;7.70;1.27;;;14.00;82.20;;;;;;5086201;28;20048;-77
2022/04/27 12:57:52;;;;;;;6.35;1.05;;;13.90;82.40;;;;;;5087616;28;20058;-77
2022/04/27 13:00:35;;;;;;;6.80;1.50;;;13.90;83.30;;;;;;5103696;28;20051;-78
2022/04/27 13:03:01;;;;;;;4.70;1.48;;;14.00;84.90;;;;;;5103438;28;20055;-77
2022/04/27 13:05:27;;;;;;;6.68;1.58;;;14.10;85.50;;;;;;5086902;28;20123;-77
2022/04/27 13:07:53;;;;;;;7.40;1.23;;;14.10;83.90;;;;;;5087368;28;20122;-77
2022/04/27 13:13:03;;;;;;;8.77;1.58;;;14.00;84.00;;;;;;5087094;28;20044;-76
2022/04/27 13:15:29;;;;;;;8.95;1.27;;;14.10;84.60;;;;;;5085968;28;20044;-77
2022/04/27 13:17:55;;;;;;;4.57;0.95;;;14.10;84.40;;;;;;5086391;28;20506;-77
2022/04/27 13:20:20;;;;;;;10.52;0.93;;;14.30;83.40;;;;;;5087353;28;20039;-78
2022/04/27 13:22:46;;;;;;;7.95;1.20;;;14.30;81.70;;;;;;5084841;28;20403;-76